This is the latest recevied weather packets stored in our database for station/object WX7FGZ-3. If no packets are shown the sender has not sent any weather packets the latest 10 day(s).
| Time | Temp. | Humidity | Pressure | Rain* | Wind** | Luminosity | Snow |
|---|---|---|---|---|---|---|---|
| 1778124465 | 5° C | 37% | 1016.9 hPa | 0 mm | - | - | - |
| 1778123564 | 6.11° C | 36% | 1016.7 hPa | 0 mm | - | - | - |
| 1778119961 | 9.44° C | 32% | 1015.7 hPa | 0 mm | - | - | - |
| 1778119661 | 10° C | 32% | 1015.7 hPa | 0 mm | - | - | - |
| 1778119361 | 10.56° C | 31% | 1015.3 hPa | 0 mm | - | - | - |
| 1778119060 | 10.56° C | 31% | 1015.3 hPa | 0 mm | - | - | - |
| 1778118763 | 11.11° C | 30% | 1015.2 hPa | 0 mm | - | - | - |
| 1778118459 | 11.11° C | 30% | 1015 hPa | 0 mm | - | - | - |
| 1778118160 | 11.67° C | 30% | 1015.2 hPa | 0 mm | - | - | - |
| 1778117258 | 12.22° C | 29% | 1015.1 hPa | 0 mm | - | - | - |
| 1778116958 | 12.22° C | 30% | 1015 hPa | 0 mm | - | - | - |
| 1778116658 | 12.22° C | 31% | 1015.1 hPa | 0 mm | - | - | - |
| 1778116358 | 12.78° C | 30% | 1014.9 hPa | 0 mm | - | - | - |
| 1778116058 | 12.78° C | 30% | 1015 hPa | 0 mm | - | - | - |
| 1778115758 | 12.78° C | 30% | 1014.9 hPa | 0 mm | - | - | - |
| 1778115457 | 13.33° C | 29% | 1014.9 hPa | 0 mm | - | - | - |
| 1778114856 | 13.33° C | 28% | 1014.7 hPa | 0 mm | - | - | - |
| 1778114556 | 13.33° C | 30% | 1014.6 hPa | 0 mm | - | - | - |
| 1778113655 | 13.33° C | 29% | 1014.6 hPa | 0 mm | - | - | - |
| 1778113355 | 13.89° C | 29% | 1014.5 hPa | 0 mm | - | - | - |
| 1778113054 | 13.89° C | 29% | 1014.5 hPa | 0 mm | - | - | - |
| 1778112754 | 13.89° C | 30% | 1014.3 hPa | 0 mm | - | - | - |
| 1778112154 | 13.89° C | 30% | 1014.4 hPa | 0 mm | - | - | - |
| 1778111853 | 14.44° C | 31% | 1014.3 hPa | 0 mm | - | - | - |
| 1778111553 | 14.44° C | 32% | 1014 hPa | 0 mm | - | - | - |
* Rain latest hour (hover to see other rain measurements)
** Current wind speed in m/s (hover to see current wind gust speed)